Аэропорт: Братск. Братск

ICAO: UIBB

METAR:
2019-07-23 18:30:00
UIBB 231830Z AUTO 04001MPS 0900 0800W // ///021/// 16/12 Q1004 RMK QFE711/0948
METAR:
2019-07-23 17:00:00
TAF UIBB 231700Z 2318/2418 08003MPS 0500 FG FU BKN001 TEMPO 2318/2402 1500 FU BECMG 2402/2403 3100 FU FEW002 SCT016CB